Time;durP1;ratioP1;P1;durP2;ratioP2;P2;SDS_P1;SDS_P2;PMS_P1;PMS_P2;Temp;Humidity;BMP_temperature;BMP_pressure;BME280_temperature;BME280_humidity;BME280_pressure;Samples;Min_cycle;Max_cycle;Signal;HPM_P1;HPM_P2
2023/10/02 00:00:27;;;;;;;26.15;9.57;;;;;;;17.43;100.00;102026.34;6102369;19;20071;-77
2023/10/02 00:02:47;;;;;;;27.58;9.45;;;;;;;17.38;100.00;102029.28;6101926;19;20010;-75
2023/10/02 00:04:52;;;;;;;24.67;8.45;;;;;;;17.40;100.00;102030.03;6105651;19;20403;-75
2023/10/02 00:07:14;;;;;;;29.42;9.10;;;;;;;17.38;100.00;102023.06;6103760;19;20027;-75
2023/10/02 00:09:25;;;;;;;26.02;9.25;;;;;;;17.38;100.00;102028.38;6100742;19;20465;-75
2023/10/02 00:11:42;;;;;;;27.67;9.70;;;;;;;17.31;100.00;102027.84;6103485;19;20418;-76
2023/10/02 00:13:50;;;;;;;27.25;8.73;;;;;;;17.30;100.00;102024.34;6104202;19;20003;-76
2023/10/02 00:15:53;;;;;;;29.48;10.35;;;;;;;17.29;100.00;102013.78;6105364;19;20420;-75
2023/10/02 00:17:59;;;;;;;27.15;10.55;;;;;;;17.32;100.00;102018.94;6105157;19;20514;-75
2023/10/02 00:20:14;;;;;;;23.63;9.38;;;;;;;17.24;100.00;102024.63;6103935;19;21246;-75
2023/10/02 00:22:38;;;;;;;27.98;10.48;;;;;;;17.24;100.00;102015.81;6080462;19;20297;-75
2023/10/02 00:24:47;;;;;;;;;;;;;;;17.19;100.00;102024.00;6079972;19;20110;-69
2023/10/02 00:26:52;;;;;;;25.77;9.10;;;;;;;17.17;100.00;102032.97;6098811;19;20241;-70
2023/10/02 00:28:59;;;;;;;24.25;10.02;;;;;;;17.12;100.00;102025.25;6099122;19;20018;-71
2023/10/02 00:31:05;;;;;;;26.17;9.15;;;;;;;17.07;100.00;102033.44;6101414;19;20007;-71
2023/10/02 00:33:11;;;;;;;25.77;9.70;;;;;;;17.05;100.00;102030.00;6103178;19;20011;-71
2023/10/02 00:35:22;;;;;;;24.92;9.18;;;;;;;17.02;100.00;102032.78;6104804;19;20021;-71
2023/10/02 00:37:43;;;;;;;24.92;8.88;;;;;;;17.04;100.00;102035.38;6101210;19;20007;-71
2023/10/02 00:39:53;;;;;;;21.48;8.07;;;;;;;17.02;100.00;102038.09;6104112;19;20346;-71
2023/10/02 00:44:22;;;;;;;25.92;8.52;;;;;;;16.88;100.00;102030.81;6104726;19;20021;-71
2023/10/02 00:46:24;;;;;;;31.17;10.93;;;;;;;16.78;100.00;102031.31;6104145;19;20033;-71
2023/10/02 00:48:33;;;;;;;22.65;8.43;;;;;;;16.66;100.00;102040.69;6100201;19;20045;-76
2023/10/02 00:50:49;;;;;;;26.45;8.75;;;;;;;16.55;100.00;102037.69;6102601;19;20477;-74
2023/10/02 00:52:59;;;;;;;23.02;8.10;;;;;;;16.46;100.00;102034.53;6101637;19;20014;-69
2023/10/02 00:55:08;;;;;;;25.42;9.00;;;;;;;16.38;100.00;102034.03;6079100;19;20009;-70
2023/10/02 00:57:19;;;;;;;24.48;8.35;;;;;;;16.29;100.00;102020.31;6098175;19;20025;-76
2023/10/02 00:59:24;;;;;;;25.50;9.90;;;;;;;16.20;100.00;102024.25;6105486;19;20006;-77
2023/10/02 01:01:34;;;;;;;28.80;9.70;;;;;;;16.16;100.00;102028.81;6102774;19;20002;-70
2023/10/02 01:04:07;;;;;;;28.85;9.25;;;;;;;16.12;100.00;102024.59;6098686;19;20350;-77
2023/10/02 01:06:08;;;;;;;25.90;9.55;;;;;;;16.07;100.00;102021.28;6106067;19;20013;-70
2023/10/02 01:08:23;;;;;;;23.23;9.27;;;;;;;16.00;100.00;102018.03;6103353;19;20018;-69
2023/10/02 01:10:32;;;;;;;24.20;8.73;;;;;;;15.97;100.00;102019.97;6100246;19;20268;-70
2023/10/02 01:12:43;;;;;;;23.60;8.52;;;;;;;15.91;100.00;102015.78;6100561;19;20510;-74
2023/10/02 01:14:54;;;;;;;28.38;9.05;;;;;;;15.98;100.00;102013.72;6102209;19;20010;-72
2023/10/02 01:17:02;;;;;;;25.55;9.45;;;;;;;15.97;100.00;102012.84;6107283;19;20751;-75
2023/10/02 01:19:08;;;;;;;22.85;9.27;;;;;;;15.96;100.00;102018.25;6105329;19;20010;-70
2023/10/02 01:21:18;;;;;;;24.83;9.10;;;;;;;15.96;100.00;102013.81;6106788;19;20486;-76
2023/10/02 01:23:26;;;;;;;24.95;10.10;;;;;;;15.94;100.00;102012.16;6107486;19;20102;-75
2023/10/02 01:25:36;;;;;;;25.20;9.38;;;;;;;15.93;100.00;102007.75;6108451;19;20014;-75
2023/10/02 01:27:47;;;;;;;25.02;9.88;;;;;;;15.93;100.00;102010.41;6107326;19;20451;-75
2023/10/02 01:30:14;;;;;;;21.98;9.00;;;;;;;15.89;100.00;102014.13;6107275;19;20018;-75
2023/10/02 01:32:21;;;;;;;25.40;8.82;;;;;;;15.92;100.00;102012.19;6105366;19;20078;-75
2023/10/02 01:34:39;;;;;;;26.65;8.95;;;;;;;15.94;100.00;102014.81;6102880;19;20006;-75
2023/10/02 01:36:51;;;;;;;31.17;11.07;;;;;;;15.95;100.00;102008.56;6098017;19;20490;-75
2023/10/02 01:38:59;;;;;;;22.48;8.48;;;;;;;15.88;100.00;102013.28;6102262;19;20462;-70
2023/10/02 01:41:08;;;;;;;25.05;9.07;;;;;;;15.90;100.00;102005.25;6102046;19;20038;-70
2023/10/02 01:43:13;;;;;;;24.75;9.30;;;;;;;15.86;100.00;102003.69;6103473;19;20010;-75
2023/10/02 01:45:20;;;;;;;30.83;10.95;;;;;;;15.84;100.00;102006.38;6104252;19;20554;-75
2023/10/02 01:47:39;;;;;;;27.80;9.73;;;;;;;15.78;100.00;102004.88;6100631;19;20443;-75
2023/10/02 01:49:47;;;;;;;24.23;8.95;;;;;;;15.76;100.00;102011.16;6104179;19;20349;-76
2023/10/02 01:51:55;;;;;;;33.78;10.80;;;;;;;15.77;100.00;102015.53;6101058;19;20926;-75
2023/10/02 01:54:03;;;;;;;21.52;8.32;;;;;;;15.71;100.00;102014.00;6100244;19;20007;-75
2023/10/02 01:56:11;;;;;;;28.30;10.20;;;;;;;15.73;100.00;102021.91;6101813;19;20019;-77
2023/10/02 01:58:23;;;;;;;25.27;10.02;;;;;;;15.70;100.00;102019.38;6100491;19;20802;-70
2023/10/02 02:00:28;;;;;;;24.80;9.23;;;;;;;15.68;100.00;102016.75;6101824;19;20011;-70
2023/10/02 02:02:34;;;;;;;26.95;10.27;;;;;;;15.69;100.00;102009.69;6090124;19;20009;-77
2023/10/02 02:04:42;;;;;;;30.58;9.90;;;;;;;15.64;100.00;102007.22;6103673;19;20454;-75
2023/10/02 02:06:56;;;;;;;32.35;10.15;;;;;;;15.59;100.00;102004.78;6103221;19;20386;-75
2023/10/02 02:09:01;;;;;;;22.88;9.70;;;;;;;15.57;100.00;101997.81;6101657;19;20014;-75
2023/10/02 02:11:21;;;;;;;23.13;8.95;;;;;;;15.59;100.00;102003.91;6101980;19;20010;-70
2023/10/02 02:13:26;;;;;;;27.67;9.80;;;;;;;15.56;100.00;102006.66;6100220;19;20470;-70
2023/10/02 02:15:32;;;;;;;30.27;10.00;;;;;;;15.54;100.00;102000.59;6100946;19;20019;-70
2023/10/02 02:17:37;;;;;;;22.40;8.77;;;;;;;15.48;100.00;101998.19;6100311;19;20363;-70
2023/10/02 02:19:48;;;;;;;26.15;8.85;;;;;;;15.39;100.00;102003.91;6098578;19;20034;-70
2023/10/02 02:21:56;;;;;;;23.92;9.02;;;;;;;15.34;100.00;101998.78;6101474;19;20003;-70
2023/10/02 02:24:11;;;;;;;21.90;10.20;;;;;;;15.29;100.00;102000.75;6101044;19;20478;-76
2023/10/02 02:26:23;;;;;;;24.45;9.35;;;;;;;15.24;100.00;101986.84;6101951;19;20327;-76
2023/10/02 02:28:28;;;;;;;31.27;9.23;;;;;;;15.20;100.00;101990.56;6099519;19;20032;-76
2023/10/02 02:30:40;;;;;;;26.55;9.50;;;;;;;15.16;100.00;101995.09;6100522;19;20011;-76
2023/10/02 02:32:52;;;;;;;27.02;8.70;;;;;;;15.18;100.00;101995.91;6101129;19;20014;-76
2023/10/02 02:35:04;;;;;;;24.88;8.75;;;;;;;15.12;100.00;101998.81;6102454;19;20006;-71
2023/10/02 02:37:09;;;;;;;22.48;8.80;;;;;;;15.07;100.00;102000.81;6101275;19;20011;-75
2023/10/02 02:39:22;;;;;;;23.98;9.05;;;;;;;15.04;100.00;102000.94;6103451;19;20015;-75
2023/10/02 02:41:30;;;;;;;20.65;8.77;;;;;;;14.99;100.00;101997.59;6100770;19;20098;-75
2023/10/02 02:43:38;;;;;;;23.48;9.82;;;;;;;14.95;100.00;101998.63;6099842;19;20347;-76
2023/10/02 02:45:53;;;;;;;19.08;7.88;;;;;;;14.87;100.00;101997.16;6102039;19;20132;-77
2023/10/02 02:47:57;;;;;;;20.13;9.23;;;;;;;14.87;100.00;101994.50;6100300;19;20765;-74
2023/10/02 02:50:06;;;;;;;21.48;8.45;;;;;;;14.85;100.00;102000.78;6100545;19;20334;-76
2023/10/02 02:52:11;;;;;;;25.48;9.85;;;;;;;14.86;100.00;101997.22;6098365;19;20010;-76
2023/10/02 02:54:17;;;;;;;22.90;9.43;;;;;;;14.84;100.00;101993.78;6099493;19;20031;-76
2023/10/02 02:56:24;;;;;;;26.33;8.80;;;;;;;14.89;100.00;102007.69;6104460;19;20011;-76
2023/10/02 02:58:30;;;;;;;24.70;9.13;;;;;;;14.90;100.00;102007.63;6100412;19;20343;-70
2023/10/02 03:00:42;;;;;;;27.55;9.65;;;;;;;14.88;100.00;101998.91;6097292;19;20010;-69
2023/10/02 03:02:48;;;;;;;27.92;10.20;;;;;;;14.86;100.00;101997.22;6095606;19;20102;-70
2023/10/02 03:04:56;;;;;;;28.52;9.07;;;;;;;14.81;100.00;101997.41;6100025;19;20010;-77
2023/10/02 03:07:09;;;;;;;26.33;10.15;;;;;;;14.79;100.00;102008.97;6104171;19;20206;-75
2023/10/02 03:09:23;;;;;;;26.27;9.05;;;;;;;14.76;100.00;101994.06;6103604;19;20564;-69
2023/10/02 03:11:29;;;;;;;29.48;11.25;;;;;;;14.85;100.00;102001.66;6101226;19;20435;-69
2023/10/02 03:13:35;;;;;;;26.73;9.80;;;;;;;14.82;100.00;101996.47;6098109;19;20050;-75
2023/10/02 03:15:48;;;;;;;25.70;9.63;;;;;;;14.82;100.00;101996.47;6102002;19;20007;-75
2023/10/02 03:17:58;;;;;;;29.50;10.38;;;;;;;15.02;100.00;101992.19;6102083;19;20057;-71
2023/10/02 03:20:22;;;;;;;27.92;9.77;;;;;;;15.05;100.00;101984.97;6100488;19;20015;-70
2023/10/02 03:22:27;;;;;;;27.65;10.52;;;;;;;15.03;100.00;101996.53;6100456;19;20038;-70
2023/10/02 03:24:35;;;;;;;24.15;9.73;;;;;;;14.98;100.00;101990.56;6091070;19;20081;-76
2023/10/02 03:26:43;;;;;;;29.42;10.40;;;;;;;14.99;100.00;101992.31;6099694;19;20517;-75
2023/10/02 03:29:00;;;;;;;24.75;11.85;;;;;;;15.01;100.00;101980.75;6105199;19;20074;-75
2023/10/02 03:31:16;;;;;;;31.40;10.55;;;;;;;15.20;100.00;101980.84;6103527;19;20011;-70
2023/10/02 03:33:20;;;;;;;30.02;11.55;;;;;;;15.19;100.00;101983.53;6106867;19;20027;-70
2023/10/02 03:35:25;;;;;;;25.27;11.07;;;;;;;15.20;100.00;101975.53;6105817;19;20042;-75
2023/10/02 03:37:30;;;;;;;30.92;10.90;;;;;;;15.22;100.00;101978.09;6107279;19;20412;-70
2023/10/02 03:41:55;;;;;;;24.25;10.27;;;;;;;15.29;100.00;101969.84;6106770;19;20019;-70
2023/10/02 03:44:03;;;;;;;32.40;11.98;;;;;;;15.34;100.00;101973.16;6108299;19;20127;-75
2023/10/02 03:46:13;;;;;;;29.02;12.02;;;;;;;15.30;100.00;101971.59;6108089;19;20007;-75
2023/10/02 03:48:19;;;;;;;28.38;11.73;;;;;;;15.25;100.00;101976.22;6108142;19;20006;-70
2023/10/02 03:50:24;;;;;;;29.75;11.38;;;;;;;15.20;100.00;101975.53;6107083;19;20018;-71
2023/10/02 03:52:30;;;;;;;28.20;10.02;;;;;;;15.18;100.00;101972.09;6102590;19;20451;-72
2023/10/02 03:54:36;;;;;;;32.05;11.93;;;;;;;15.27;100.00;101962.88;6107948;19;20021;-71
2023/10/02 03:56:42;;;;;;;29.30;10.85;;;;;;;15.31;100.00;101965.34;6108339;19;20092;-76
2023/10/02 03:58:48;;;;;;;32.65;12.60;;;;;;;15.36;100.00;101966.00;6110969;19;20010;-76
2023/10/02 04:00:57;;;;;;;26.50;11.52;;;;;;;15.36;100.00;101955.41;6111257;19;20010;-71
2023/10/02 04:03:05;;;;;;;32.35;12.98;;;;;;;15.44;100.00;101962.19;6108203;19;20010;-71
2023/10/02 04:05:09;;;;;;;31.02;12.27;;;;;;;15.36;100.00;101958.06;6104319;19;20015;-70
2023/10/02 04:07:17;;;;;;;30.92;11.38;;;;;;;15.42;100.00;101954.28;6107369;19;20356;-70
2023/10/02 04:09:26;;;;;;;30.42;11.35;;;;;;;15.32;100.00;101945.91;6105158;19;20491;-70
2023/10/02 04:11:33;;;;;;;28.98;11.25;;;;;;;15.35;100.00;101953.72;6103705;19;20007;-71
2023/10/02 04:13:39;;;;;;;28.83;12.55;;;;;;;15.42;100.00;101943.69;6104953;19;20366;-70
2023/10/02 04:15:46;;;;;;;31.90;11.88;;;;;;;15.36;100.00;101947.47;6105210;19;20270;-71
2023/10/02 04:17:54;;;;;;;28.48;11.35;;;;;;;15.29;100.00;101953.94;6103292;19;20018;-70
2023/10/02 04:20:04;;;;;;;23.65;10.35;;;;;;;15.28;100.00;101954.88;6103891;19;20259;-71
2023/10/02 04:22:19;;;;;;;23.42;10.25;;;;;;;15.21;100.00;101953.41;6105582;19;20767;-71
2023/10/02 04:24:23;;;;;;;31.95;10.95;;;;;;;15.17;100.00;101956.28;6101107;19;20391;-70
2023/10/02 04:26:31;;;;;;;26.38;10.77;;;;;;;15.12;100.00;101956.47;6101967;19;20020;-71
2023/10/02 04:28:49;;;;;;;27.67;11.07;;;;;;;15.08;100.00;101944.25;6088898;19;20014;-72
2023/10/02 04:31:05;;;;;;;24.38;10.32;;;;;;;15.07;100.00;101947.84;6102638;19;20443;-71
2023/10/02 04:33:14;;;;;;;27.17;9.63;;;;;;;15.04;100.00;101953.28;6101698;19;20003;-72
2023/10/02 04:37:37;;;;;;;27.85;11.80;;;;;;;14.90;100.00;101957.34;6103144;19;20459;-76
2023/10/02 04:39:53;;;;;;;28.02;11.18;;;;;;;14.89;100.00;101952.09;6102147;19;20014;-77
2023/10/02 04:42:13;;;;;;;31.30;11.35;;;;;;;14.87;100.00;101952.16;6101545;19;20019;-77
2023/10/02 04:44:18;;;;;;;23.52;9.98;;;;;;;14.81;100.00;101951.56;6106378;19;20365;-75
2023/10/02 04:46:32;;;;;;;23.48;10.75;;;;;;;14.77;100.00;101949.94;6082787;19;20085;-72
2023/10/02 04:48:59;;;;;;;28.85;9.82;;;;;;;14.70;100.00;101959.94;6094817;19;20014;-77
2023/10/02 04:52:53;;;;;;;30.33;12.35;;;;;;;14.71;100.00;101964.28;6079041;19;20007;-77
2023/10/02 04:55:04;;;;;;;26.98;9.90;;;;;;;14.60;100.00;101969.16;6029115;19;20101;-76
2023/10/02 04:57:28;;;;;;;25.48;10.20;;;;;;;14.58;100.00;101971.00;6076183;19;20019;-75
2023/10/02 04:59:51;;;;;;;26.25;9.65;;;;;;;14.57;100.00;101979.88;6072827;19;20006;-76
2023/10/02 05:02:17;;;;;;;30.67;11.25;;;;;;;14.54;100.00;101975.56;6102921;19;20014;-76
2023/10/02 05:04:23;;;;;;;28.50;10.75;;;;;;;14.48;100.00;101981.91;6104903;19;20010;-75
2023/10/02 05:11:23;;;;;;;30.75;10.50;;;;;;;14.38;100.00;101967.31;6102642;19;20699;-70
2023/10/02 05:16:06;;;;;;;26.05;9.60;;;;;;;14.34;100.00;101968.34;6105619;19;20024;-70
2023/10/02 05:18:10;;;;;;;27.05;9.30;;;;;;;14.35;100.00;101969.19;6101409;19;20021;-70
2023/10/02 05:20:26;;;;;;;33.40;11.82;;;;;;;14.32;100.00;101959.59;6097831;19;20066;-70
2023/10/02 05:22:31;;;;;;;34.17;12.20;;;;;;;14.37;100.00;101972.66;6101030;19;20034;-71
2023/10/02 05:24:37;;;;;;;27.58;10.88;;;;;;;14.37;100.00;101970.00;6100834;19;20002;-71
2023/10/02 05:26:44;;;;;;;29.90;10.95;;;;;;;14.35;100.00;101967.44;6102747;19;20019;-70
2023/10/02 05:28:50;;;;;;;31.42;11.20;;;;;;;14.38;100.00;101961.16;6103077;19;20041;-76
2023/10/02 05:30:53;;;;;;;28.50;9.95;;;;;;;14.40;100.00;101959.31;6106161;19;20010;-76
2023/10/02 05:32:59;;;;;;;30.35;12.00;;;;;;;14.43;100.00;101968.00;6103641;19;20010;-76
2023/10/02 05:35:16;;;;;;;30.63;10.90;;;;;;;14.41;100.00;101980.41;6099348;19;20007;-71
2023/10/02 05:37:23;;;;;;;28.83;10.98;;;;;;;14.49;100.00;101974.84;6103698;19;20513;-75
2023/10/02 05:39:31;;;;;;;28.42;11.32;;;;;;;14.50;100.00;101971.25;6098861;19;20482;-74
2023/10/02 05:41:44;;;;;;;25.88;11.27;;;;;;;14.46;100.00;101970.53;6097665;19;20010;-75
2023/10/02 05:43:58;;;;;;;26.85;9.80;;;;;;;14.47;100.00;101974.03;6098748;19;20006;-71
2023/10/02 05:46:06;;;;;;;;;;;;;;;14.47;100.00;101979.31;6101822;19;20605;-70
2023/10/02 05:48:14;;;;;;;31.25;10.38;;;;;;;14.48;100.00;101984.56;6098314;19;20252;-72
2023/10/02 05:50:32;;;;;;;30.75;10.88;;;;;;;14.47;100.00;101989.91;6098337;19;20017;-70
2023/10/02 05:52:48;;;;;;;25.67;10.07;;;;;;;14.46;100.00;101986.41;6085992;19;20534;-71
2023/10/02 05:54:56;;;;;;;26.38;10.70;;;;;;;14.55;100.00;101987.84;6099170;19;20495;-75
2023/10/02 05:57:08;;;;;;;28.67;11.77;;;;;;;14.56;100.00;101994.00;6096538;19;20470;-76
2023/10/02 05:59:19;;;;;;;28.30;11.10;;;;;;;14.62;100.00;101991.13;6099387;19;20003;-70
2023/10/02 06:01:26;;;;;;;29.83;11.35;;;;;;;14.62;100.00;101989.34;6097470;19;20007;-76
2023/10/02 06:03:35;;;;;;;31.83;10.93;;;;;;;14.71;100.00;101990.75;6096522;19;20455;-76
2023/10/02 06:05:39;;;;;;;33.15;12.27;;;;;;;14.76;100.00;101993.22;6102384;19;20006;-77
2023/10/02 06:08:16;;;;;;;33.07;10.93;;;;;;;14.74;100.00;101995.91;6101894;19;20023;-77
2023/10/02 06:10:27;;;;;;;26.98;11.23;;;;;;;14.74;100.00;101992.41;6100714;19;20280;-77
2023/10/02 06:12:33;;;;;;;30.38;11.80;;;;;;;14.76;100.00;101987.94;6102217;19;20357;-77
2023/10/02 06:14:42;;;;;;;34.90;12.77;;;;;;;14.78;100.00;101994.03;6094380;19;20003;-77
2023/10/02 06:16:47;;;;;;;35.40;13.60;;;;;;;14.82;100.00;101995.63;6102107;19;20037;-75
2023/10/02 06:19:00;;;;;;;29.42;11.82;;;;;;;14.84;100.00;102002.56;6101267;19;20070;-76
2023/10/02 06:21:06;;;;;;;25.20;11.73;;;;;;;14.88;100.00;102001.53;6102146;19;20385;-76
2023/10/02 06:23:22;;;;;;;34.40;11.75;;;;;;;14.89;100.00;101997.97;6099880;19;20080;-76
2023/10/02 06:25:27;;;;;;;27.63;10.65;;;;;;;14.91;100.00;101993.47;6101503;19;20043;-76
2023/10/02 06:27:41;;;;;;;31.85;11.68;;;;;;;14.95;100.00;101993.34;6100857;19;20010;-75
2023/10/02 06:29:49;;;;;;;;;;;;;;;14.98;100.00;102004.69;6096187;19;20530;-76
2023/10/02 06:32:02;;;;;;;27.38;10.73;;;;;;;14.97;100.00;102004.75;6099571;19;20300;-75
2023/10/02 06:34:11;;;;;;;36.13;12.02;;;;;;;14.97;100.00;102005.59;6099465;19;20039;-77
2023/10/02 06:36:19;;;;;;;33.92;10.95;;;;;;;15.05;100.00;102010.59;6101741;19;20361;-76
2023/10/02 06:38:29;;;;;;;31.90;12.50;;;;;;;15.05;100.00;102005.28;6091296;19;20401;-76
2023/10/02 06:40:37;;;;;;;37.58;14.10;;;;;;;15.09;100.00;102013.06;6100599;19;19999;-77
2023/10/02 06:42:57;;;;;;;35.10;12.88;;;;;;;15.10;100.00;102012.13;6071538;19;20007;-76
2023/10/02 06:47:21;;;;;;;29.38;12.38;;;;;;;15.15;100.00;102004.84;6100726;19;20038;-76
2023/10/02 06:49:27;;;;;;;37.83;13.25;;;;;;;15.22;100.00;102000.19;6103338;19;20451;-76
2023/10/02 06:51:37;;;;;;;37.40;13.65;;;;;;;15.24;100.00;101992.16;6099911;19;20491;-77
2023/10/02 06:53:47;;;;;;;28.48;12.40;;;;;;;15.28;100.00;101999.91;6096595;19;20006;-77
2023/10/02 06:55:58;;;;;;;33.58;11.60;;;;;;;15.32;100.00;102001.50;6103302;19;20550;-77
2023/10/02 06:58:07;;;;;;;29.80;11.85;;;;;;;15.36;100.00;102003.09;6102125;19;20097;-76
2023/10/02 07:01:01;;;;;;;31.73;11.73;;;;;;;15.41;100.00;102005.56;6104089;19;20032;-77
2023/10/02 07:03:08;;;;;;;38.92;13.95;;;;;;;15.52;100.00;102000.66;6101387;19;20125;-77
2023/10/02 07:05:13;;;;;;;31.50;12.95;;;;;;;15.59;100.00;102006.56;6106558;19;20386;-77
2023/10/02 07:07:24;;;;;;;35.75;13.57;;;;;;;15.73;100.00;102011.31;6109125;19;20051;-76
2023/10/02 07:09:33;;;;;;;40.13;14.93;;;;;;;15.84;100.00;102011.69;6108971;19;20035;-77
2023/10/02 07:11:42;;;;;;;40.92;15.55;;;;;;;15.95;100.00;102014.72;6108779;19;20038;-77
2023/10/02 07:14:03;;;;;;;31.48;13.30;;;;;;;16.06;100.00;102011.63;6107855;19;20010;-77
2023/10/02 07:16:09;;;;;;;34.17;13.60;;;;;;;16.14;100.00;102012.13;6107054;19;20010;-77
2023/10/02 07:18:15;;;;;;;37.55;15.55;;;;;;;16.17;100.00;102009.31;6107840;19;20006;-76
2023/10/02 07:20:22;;;;;;;34.38;14.02;;;;;;;16.23;100.00;102006.38;6106824;19;20017;-78
2023/10/02 07:22:28;;;;;;;27.30;12.38;;;;;;;16.29;100.00;102015.00;6106741;19;20007;-75
2023/10/02 07:24:40;;;;;;;28.05;14.95;;;;;;;16.33;100.00;102024.56;6104947;19;20042;-77
2023/10/02 07:26:52;;;;;;;35.22;13.73;;;;;;;16.36;100.00;102030.56;6102892;19;20017;-78
2023/10/02 07:29:00;;;;;;;32.10;12.63;;;;;;;16.41;100.00;102019.75;6104923;19;20017;-76
2023/10/02 07:31:06;;;;;;;28.08;12.23;;;;;;;16.49;100.00;102030.00;6108583;19;20298;-77
2023/10/02 07:33:11;;;;;;;29.10;12.45;;;;;;;16.54;100.00;102039.47;6105764;19;20382;-76
2023/10/02 07:35:22;;;;;;;34.45;14.00;;;;;;;16.61;100.00;102043.56;6105723;19;20810;-75
2023/10/02 07:37:30;;;;;;;38.97;14.43;;;;;;;16.70;100.00;102033.47;6107224;19;20014;-76
2023/10/02 07:39:36;;;;;;;37.55;14.07;;;;;;;16.77;100.00;102045.47;6107006;19;20002;-76
2023/10/02 07:41:59;;;;;;;31.45;14.15;;;;;;;16.86;100.00;102045.94;6106507;19;20030;-75
2023/10/02 07:44:12;;;;;;;32.85;12.55;;;;;;;16.96;100.00;102050.84;6105135;19;20021;-76
2023/10/02 07:46:21;;;;;;;40.92;15.57;;;;;;;17.07;100.00;102045.84;6104348;19;20111;-76
2023/10/02 07:48:26;;;;;;;35.85;14.07;;;;;;;17.16;100.00;102049.84;6106802;19;20003;-77
2023/10/02 07:50:38;;;;;;;37.53;14.85;;;;;;;17.25;100.00;102046.75;6106577;19;20006;-78
2023/10/02 07:52:49;;;;;;;45.05;16.23;;;;;;;17.37;100.00;102037.31;6099204;19;20325;-77
2023/10/02 07:54:59;;;;;;;41.08;14.30;;;;;;;17.44;100.00;102044.91;6105313;19;23365;-78
2023/10/02 07:57:05;;;;;;;38.88;15.27;;;;;;;17.48;100.00;102040.28;6102514;19;20006;-77
2023/10/02 07:59:11;;;;;;;41.05;15.25;;;;;;;17.53;100.00;102027.63;6103803;19;20627;-78
2023/10/02 08:01:16;;;;;;;37.22;15.82;;;;;;;17.46;100.00;102043.03;6104695;19;20032;-77
2023/10/02 08:03:42;;;;;;;41.35;16.30;;;;;;;17.53;100.00;102043.56;6102883;19;20021;-76
2023/10/02 08:05:48;;;;;;;41.78;15.82;;;;;;;17.58;100.00;102046.00;6105562;19;20512;-77
2023/10/02 08:08:08;;;;;;;43.50;17.40;;;;;;;17.66;100.00;102038.50;6105047;19;20352;-76
2023/10/02 08:10:20;;;;;;;45.28;16.27;;;;;;;17.87;100.00;102039.22;6105991;19;20020;-77
2023/10/02 08:12:29;;;;;;;47.03;16.00;;;;;;;17.91;100.00;102044.31;6107418;19;20022;-77
2023/10/02 08:14:38;;;;;;;38.35;15.68;;;;;;;17.98;100.00;102029.75;6100821;19;20007;-76
2023/10/02 08:19:10;;;;;;;34.42;14.82;;;;;;;18.15;100.00;102039.47;6102853;19;20026;-78
2023/10/02 08:21:12;;;;;;;44.28;15.82;;;;;;;18.10;100.00;102040.69;6103864;19;20002;-77
2023/10/02 08:23:24;;;;;;;43.20;16.67;;;;;;;18.19;100.00;102037.50;6104618;19;20110;-76
2023/10/02 08:25:39;;;;;;;47.60;18.05;;;;;;;18.19;100.00;102043.72;6105455;19;20707;-76
2023/10/02 08:27:55;;;;;;;38.20;16.58;;;;;;;18.38;100.00;102032.94;6104267;19;20031;-76
2023/10/02 08:30:18;;;;;;;45.97;17.00;;;;;;;18.42;100.00;102026.47;6094483;19;20070;-76
2023/10/02 08:32:31;;;;;;;47.50;16.98;;;;;;;18.43;100.00;102017.56;6103115;19;20015;-77
2023/10/02 08:34:36;;;;;;;51.08;17.90;;;;;;;18.42;100.00;102022.97;6095264;19;20010;-77
2023/10/02 08:36:47;;;;;;;46.42;18.52;;;;;;;18.62;100.00;102025.41;6104279;19;20003;-78
2023/10/02 08:38:50;;;;;;;46.30;17.73;;;;;;;18.88;100.00;102024.91;6104922;19;20310;-76
2023/10/02 08:41:08;;;;;;;37.83;16.70;;;;;;;19.15;100.00;102023.34;6103450;19;20007;-76
2023/10/02 08:43:22;;;;;;;48.00;15.93;;;;;;;19.10;100.00;102025.41;6104326;19;20615;-77
2023/10/02 08:45:28;;;;;;;39.33;18.35;;;;;;;19.26;100.00;102030.72;6103255;19;20463;-75
2023/10/02 08:47:36;;;;;;;40.53;17.98;;;;;;;19.53;100.00;102036.22;6104083;19;20058;-78
2023/10/02 08:49:41;;;;;;;46.63;15.77;;;;;;;19.94;100.00;102032.91;6104702;19;20002;-75
2023/10/02 08:52:00;;;;;;;42.65;16.65;;;;;;;19.88;100.00;102034.16;6105837;19;20010;-75
2023/10/02 08:54:06;;;;;;;44.75;16.67;;;;;;;20.05;100.00;102034.94;6103380;19;20002;-77
2023/10/02 08:56:24;;;;;;;39.88;15.98;;;;;;;20.43;100.00;102031.66;6100896;19;20011;-75
2023/10/02 08:58:31;;;;;;;39.95;14.88;;;;;;;20.44;100.00;102025.38;6105736;19;20546;-76
2023/10/02 09:00:38;;;;;;;38.20;14.60;;;;;;;20.29;100.00;102025.38;6100950;19;20024;-76
2023/10/02 09:03:13;;;;;;;48.42;18.13;;;;;;;20.79;100.00;102024.00;6101353;19;20006;-77
2023/10/02 09:05:20;;;;;;;44.75;16.52;;;;;;;20.47;100.00;102023.38;6103693;19;20038;-77
2023/10/02 09:07:44;;;;;;;33.80;15.27;;;;;;;20.69;100.00;102016.69;6099567;19;20002;-78
2023/10/02 09:09:54;;;;;;;45.33;17.83;;;;;;;21.08;100.00;102017.72;6106280;19;20025;-77
2023/10/02 09:12:02;;;;;;;40.22;14.60;;;;;;;21.14;100.00;102022.66;6102330;19;20230;-78
2023/10/02 09:14:16;;;;;;;38.25;14.38;;;;;;;21.04;100.00;102019.75;6103104;19;20003;-76
2023/10/02 09:16:21;;;;;;;34.67;15.77;;;;;;;20.98;100.00;102017.47;6103401;19;20401;-75
2023/10/02 09:19:07;;;;;;;37.05;13.82;;;;;;;21.05;100.00;102016.09;6101689;19;20518;-76
2023/10/02 09:21:13;;;;;;;36.55;14.88;;;;;;;20.73;100.00;102021.75;6099063;19;20049;-77
2023/10/02 09:23:27;;;;;;;37.95;14.35;;;;;;;20.70;100.00;102026.44;6102273;19;20565;-75
2023/10/02 09:25:37;;;;;;;41.08;15.77;;;;;;;20.63;100.00;102017.94;6100577;19;20105;-75
2023/10/02 09:27:56;;;;;;;37.33;13.73;;;;;;;20.70;100.00;102010.41;6104647;19;20069;-75
2023/10/02 09:30:20;;;;;;;39.00;15.48;;;;;;;20.71;100.00;102009.44;6101934;19;20014;-76
2023/10/02 09:32:25;;;;;;;43.33;17.85;;;;;;;20.26;100.00;102004.22;6102373;19;20049;-76
2023/10/02 09:34:33;;;;;;;43.25;17.48;;;;;;;20.23;100.00;102008.91;6102832;19;20010;-76
2023/10/02 09:37:11;;;;;;;41.88;15.75;;;;;;;20.34;100.00;102009.09;6095983;19;20013;-77
2023/10/02 09:39:38;;;;;;;35.33;14.63;;;;;;;20.47;100.00;101996.66;6101420;19;20062;-76
2023/10/02 09:41:47;;;;;;;37.13;15.13;;;;;;;20.55;100.00;101999.72;6101543;19;20006;-76
2023/10/02 09:44:09;;;;;;;37.10;14.68;;;;;;;20.57;100.00;101999.66;6098895;19;20014;-75
2023/10/02 09:46:22;;;;;;;36.70;14.02;;;;;;;20.77;100.00;101993.88;6101595;19;20011;-74
2023/10/02 09:49:01;;;;;;;36.83;13.05;;;;;;;20.95;100.00;101994.47;6103221;19;20047;-76
2023/10/02 09:51:14;;;;;;;35.13;12.43;;;;;;;20.80;100.00;101991.00;6093910;19;20078;-75
2023/10/02 09:53:24;;;;;;;30.30;14.07;;;;;;;20.92;100.00;101991.16;6100350;19;20050;-75
2023/10/02 09:55:58;;;;;;;34.38;13.88;;;;;;;21.13;100.00;101989.72;6103060;19;20496;-76
2023/10/02 09:58:26;;;;;;;36.92;14.05;;;;;;;20.77;100.00;101985.88;6102199;19;20123;-78
2023/10/02 10:00:37;;;;;;;31.27;14.15;;;;;;;20.44;100.00;101990.69;6101524;19;20018;-76
2023/10/02 10:02:49;;;;;;;30.17;13.43;;;;;;;20.46;100.00;101994.97;6100239;19;20362;-75
2023/10/02 10:10:45;;;;;;;29.67;12.05;;;;;;;21.48;97.29;101983.81;6101863;19;20231;-76
2023/10/02 10:12:53;;;;;;;32.22;13.18;;;;;;;21.66;95.59;101979.03;6102120;19;19998;-75
2023/10/02 10:15:23;;;;;;;33.75;13.32;;;;;;;21.66;95.24;101981.72;6100856;19;20036;-77
2023/10/02 10:17:58;;;;;;;31.08;12.10;;;;;;;21.69;95.71;101989.53;6103364;19;20082;-75